Terminal Aerodrome Forecast
Issued by NWS

Home | Current Version | Previous Version | Text Only | Print | Product List | Glossary On
Versions: 1 2 3 4 5 6 7 8 9 10 11 12 13 14 15
000
FTUS45 KGJT 260544
TAFEGE
TAF
KEGE 260544Z 2606/2706 08005KT P6SM SCT250
     FM260900 VRB03KT P6SM SCT250
     FM261700 28004KT P6SM VCSH SCT060 BKN200
     FM270000 34007KT P6SM VCSH OVC060
     FM270500 04004KT P6SM VCSH OVC050
      AMD LTD TO CLD VIS AND WIND TIL 261300=

USA.gov is the U.S. government's official web portal to all federal, state and local government web resources and services.